aviador You're here:

KSMX Decoded Metar

SANTA MARIA in CA, USA
Report Time2017-07-22 17:51:00
UTC Time2017-07-22 18:50:25
Flight Rules vfr VFR
Wind240° at 05 kt
W.Decomp.*RWY 20: 4.5 kt HW 2.2 kt RCW
RWY 30: 1.4 kt HW 4.8 kt LCW
W.Rank240° ranks 27
Current wind is below 240° avg. (5.5)
Visibility9999 m
Phenomena:N/A
Clouds:Few 012 Hf
Expected CloudBase > 2,000 ft AGL from Temp-Dew spread
CeilingNone
Temp18°C (ISA +3)
Dew Point13°C (73% RH)
AAT17.2°C
QNH1015 hPa
Density Alt787 ft
Elevation243 ft
Report Wrong Elevation
Raw Report
METAR KSMX 221751Z 24005KT 10SM FEW012 18/13 A2997 RMK AO2 SLP150 T01830128
10183 20111 51001 $=

Extra information for KSMX:More info

Metar Taf Metar & Taf Last 4 Metars F.Rules Stats Wind Profile Meteogram Temp Stats Airport Information Weather charts Add Link Nearby VenuesMetar ALERT Operation Metar Decoded Social comments

AIRNAV info for KSMX